sensor_id;sensor_type;location;lat;lon;timestamp;pressure;altitude;pressure_sealevel;temperature;humidity
14041;BME280;7095;51.388;6.196;2023-07-13T00:01:17;53626.34;;;-145.32;100.00
14041;BME280;7095;51.388;6.196;2023-07-13T00:03:46;53640.25;;;-145.32;100.00
14041;BME280;7095;51.388;6.196;2023-07-13T00:06:14;53630.31;;;-145.32;100.00
14041;BME280;7095;51.388;6.196;2023-07-13T00:08:44;53664.13;;;-145.32;100.00
14041;BME280;7095;51.388;6.196;2023-07-13T00:11:15;53658.16;;;-145.32;100.00
14041;BME280;7095;51.388;6.196;2023-07-13T00:13:44;53713.81;;;-145.32;100.00
14041;BME280;7095;51.388;6.196;2023-07-13T00:16:13;53684.00;;;-145.32;100.00
14041;BME280;7095;51.388;6.196;2023-07-13T00:18:42;53684.00;;;-145.32;100.00
14041;BME280;7095;51.388;6.196;2023-07-13T00:21:11;53693.94;;;-145.32;100.00
14041;BME280;7095;51.388;6.196;2023-07-13T00:23:42;53709.84;;;-145.32;100.00
14041;BME280;7095;51.388;6.196;2023-07-13T00:26:12;53731.72;;;-145.32;100.00
14041;BME280;7095;51.388;6.196;2023-07-13T00:28:41;53745.63;;;-145.32;100.00
14041;BME280;7095;51.388;6.196;2023-07-13T00:31:11;53725.75;;;-145.32;100.00
14041;BME280;7095;51.388;6.196;2023-07-13T00:33:41;53721.78;;;-145.32;100.00
14041;BME280;7095;51.388;6.196;2023-07-13T00:36:11;53701.88;;;-145.32;100.00
14041;BME280;7095;51.388;6.196;2023-07-13T00:38:40;53713.81;;;-145.32;100.00
14041;BME280;7095;51.388;6.196;2023-07-13T00:41:09;53735.69;;;-145.32;100.00
14041;BME280;7095;51.388;6.196;2023-07-13T00:43:39;53755.56;;;-145.32;100.00
14041;BME280;7095;51.388;6.196;2023-07-13T00:46:16;53745.63;;;-145.32;100.00
14041;BME280;7095;51.388;6.196;2023-07-13T00:48:47;53775.47;;;-145.32;100.00
14041;BME280;7095;51.388;6.196;2023-07-13T00:51:19;53793.34;;;-145.32;100.00
14041;BME280;7095;51.388;6.196;2023-07-13T00:53:48;53781.41;;;-145.32;100.00
14041;BME280;7095;51.388;6.196;2023-07-13T00:56:17;53797.31;;;-145.32;100.00
14041;BME280;7095;51.388;6.196;2023-07-13T00:58:47;53837.09;;;-145.32;100.00
14041;BME280;7095;51.388;6.196;2023-07-13T01:01:17;53837.09;;;-145.32;100.00
14041;BME280;7095;51.388;6.196;2023-07-13T01:03:46;53862.94;;;-145.32;100.00
14041;BME280;7095;51.388;6.196;2023-07-13T01:06:15;53896.75;;;-145.32;100.00
14041;BME280;7095;51.388;6.196;2023-07-13T01:08:44;53920.59;;;-145.32;100.00
14041;BME280;7095;51.388;6.196;2023-07-13T01:11:18;53964.34;;;-145.32;100.00
14041;BME280;7095;51.388;6.196;2023-07-13T01:13:48;53978.25;;;-145.32;100.00
14041;BME280;7095;51.388;6.196;2023-07-13T01:16:21;54024.00;;;-145.32;100.00
14041;BME280;7095;51.388;6.196;2023-07-13T01:18:50;54033.94;;;-145.32;100.00
14041;BME280;7095;51.388;6.196;2023-07-13T01:21:20;54077.69;;;-145.32;100.00
14041;BME280;7095;51.388;6.196;2023-07-13T01:23:49;54131.38;;;-145.32;100.00
14041;BME280;7095;51.388;6.196;2023-07-13T01:26:18;54155.22;;;-145.32;100.00
14041;BME280;7095;51.388;6.196;2023-07-13T01:28:46;54196.97;;;-145.32;100.00
14041;BME280;7095;51.388;6.196;2023-07-13T01:31:15;54212.88;;;-145.32;100.00
14041;BME280;7095;51.388;6.196;2023-07-13T01:33:43;54258.63;;;-145.32;100.00
14041;BME280;7095;51.388;6.196;2023-07-13T01:36:12;54318.28;;;-145.32;100.00
14041;BME280;7095;51.388;6.196;2023-07-13T01:38:42;54324.25;;;-145.32;100.00
14041;BME280;7095;51.388;6.196;2023-07-13T01:41:11;54373.97;;;-145.32;100.00
14041;BME280;7095;51.388;6.196;2023-07-13T01:43:40;54419.69;;;-145.32;100.00
14041;BME280;7095;51.388;6.196;2023-07-13T01:46:09;54417.72;;;-145.32;100.00
14041;BME280;7095;51.388;6.196;2023-07-13T01:48:50;54427.66;;;-145.32;100.00
14041;BME280;7095;51.388;6.196;2023-07-13T01:51:19;54489.31;;;-145.32;100.00
14041;BME280;7095;51.388;6.196;2023-07-13T01:53:50;54491.28;;;-145.32;100.00
14041;BME280;7095;51.388;6.196;2023-07-13T01:56:18;54533.06;;;-145.32;100.00
14041;BME280;7095;51.388;6.196;2023-07-13T01:58:47;54576.81;;;-145.32;100.00
14041;BME280;7095;51.388;6.196;2023-07-13T02:01:16;54682.22;;;-145.32;100.00
14041;BME280;7095;51.388;6.196;2023-07-13T02:03:44;54747.84;;;-145.32;100.00
14041;BME280;7095;51.388;6.196;2023-07-13T02:06:13;54799.53;;;-145.32;100.00
14041;BME280;7095;51.388;6.196;2023-07-13T02:08:42;54833.34;;;-145.32;100.00
14041;BME280;7095;51.388;6.196;2023-07-13T02:11:12;54914.91;;;-145.32;100.00
14041;BME280;7095;51.388;6.196;2023-07-13T02:13:41;54974.56;;;-145.32;100.00
14041;BME280;7095;51.388;6.196;2023-07-13T02:16:09;55014.34;;;-145.32;100.00
14041;BME280;7095;51.388;6.196;2023-07-13T02:18:39;55050.16;;;-145.32;100.00
14041;BME280;7095;51.388;6.196;2023-07-13T02:21:07;55076.00;;;-145.32;100.00
14041;BME280;7095;51.388;6.196;2023-07-13T02:23:36;55115.78;;;-145.32;100.00
14041;BME280;7095;51.388;6.196;2023-07-13T02:26:05;55195.34;;;-145.32;100.00
14041;BME280;7095;51.388;6.196;2023-07-13T02:28:35;55260.97;;;-145.32;100.00
14041;BME280;7095;51.388;6.196;2023-07-13T02:31:08;55324.63;;;-145.32;100.00
14041;BME280;7095;51.388;6.196;2023-07-13T02:33:37;55406.19;;;-145.32;100.00
14041;BME280;7095;51.388;6.196;2023-07-13T02:36:05;55469.84;;;-145.32;100.00
14041;BME280;7095;51.388;6.196;2023-07-13T02:38:35;55527.53;;;-145.32;100.00
14041;BME280;7095;51.388;6.196;2023-07-13T02:41:03;55623.03;;;-145.32;100.00
14041;BME280;7095;51.388;6.196;2023-07-13T02:43:34;55702.59;;;-145.32;100.00
14041;BME280;7095;51.388;6.196;2023-07-13T02:46:03;55782.16;;;-145.32;100.00
14041;BME280;7095;51.388;6.196;2023-07-13T02:48:37;55839.84;;;-145.32;100.00
14041;BME280;7095;51.388;6.196;2023-07-13T02:51:06;55965.19;;;-145.32;100.00
14041;BME280;7095;51.388;6.196;2023-07-13T02:53:35;56120.38;;;-145.32;100.00
14041;BME280;7095;51.388;6.196;2023-07-13T02:56:04;56243.75;;;-145.32;100.00
14041;BME280;7095;51.388;6.196;2023-07-13T02:58:32;56406.91;;;-145.32;100.00
14041;BME280;7095;51.388;6.196;2023-07-13T03:01:07;56538.22;;;-145.32;100.00
14041;BME280;7095;51.388;6.196;2023-07-13T03:03:37;56777.00;;;-145.32;100.00
14041;BME280;7095;51.388;6.196;2023-07-13T03:06:06;56894.44;;;-145.32;100.00
14041;BME280;7095;51.388;6.196;2023-07-13T03:08:45;57033.72;;;-145.32;100.00
14041;BME280;7095;51.388;6.196;2023-07-13T03:11:15;57250.66;;;-145.32;100.00
14041;BME280;7095;51.388;6.196;2023-07-13T03:13:47;57401.94;;;-145.32;100.00
14041;BME280;7095;51.388;6.196;2023-07-13T03:16:17;57393.97;;;-145.32;100.00
14041;BME280;7095;51.388;6.196;2023-07-13T03:18:48;57535.28;;;-145.32;100.00
14041;BME280;7095;51.388;6.196;2023-07-13T03:21:17;57762.19;;;-145.32;100.00
14041;BME280;7095;51.388;6.196;2023-07-13T03:23:46;57891.59;;;-145.32;100.00
14041;BME280;7095;51.388;6.196;2023-07-13T03:26:16;58082.69;;;-145.32;100.00
14041;BME280;7095;51.388;6.196;2023-07-13T03:28:46;58237.97;;;-145.32;100.00
14041;BME280;7095;51.388;6.196;2023-07-13T03:31:22;58498.78;;;-145.32;100.00
14041;BME280;7095;51.388;6.196;2023-07-13T03:33:51;58910.94;;;-145.32;100.00
14041;BME280;7095;51.388;6.196;2023-07-13T03:36:22;59187.75;;;-145.32;100.00
14041;BME280;7095;51.388;6.196;2023-07-13T03:38:56;59265.41;;;-145.32;100.00
14041;BME280;7095;51.388;6.196;2023-07-13T03:41:42;59392.88;;;-145.32;100.00
14041;BME280;7095;51.388;6.196;2023-07-13T03:44:11;59761.31;;;-145.32;100.00
14041;BME280;7095;51.388;6.196;2023-07-13T03:46:41;60309.09;;;-145.32;100.00
14041;BME280;7095;51.388;6.196;2023-07-13T03:49:10;60751.34;;;-145.32;100.00
14041;BME280;7095;51.388;6.196;2023-07-13T03:51:39;61343.13;;;-145.32;100.00
14041;BME280;7095;51.388;6.196;2023-07-13T03:54:08;61805.44;;;-145.32;100.00
14041;BME280;7095;51.388;6.196;2023-07-13T03:56:37;62116.34;;;-145.32;100.00
14041;BME280;7095;51.388;6.196;2023-07-13T03:59:07;62696.41;;;-145.32;100.00
14041;BME280;7095;51.388;6.196;2023-07-13T04:01:36;63276.53;;;-145.32;100.00
14041;BME280;7095;51.388;6.196;2023-07-13T04:04:06;64018.31;;;-145.32;100.00
14041;BME280;7095;51.388;6.196;2023-07-13T04:06:34;64846.03;;;-145.32;100.00
14041;BME280;7095;51.388;6.196;2023-07-13T04:09:03;65276.91;;;-145.32;100.00
14041;BME280;7095;51.388;6.196;2023-07-13T04:11:36;65967.25;;;-145.32;100.00
14041;BME280;7095;51.388;6.196;2023-07-13T04:14:06;66951.09;;;-145.32;100.00
14041;BME280;7095;51.388;6.196;2023-07-13T04:16:34;67370.28;;;-145.32;100.00
14041;BME280;7095;51.388;6.196;2023-07-13T04:19:04;68174.81;;;-145.32;100.00
14041;BME280;7095;51.388;6.196;2023-07-13T04:21:34;68438.41;;;-145.32;100.00
14041;BME280;7095;51.388;6.196;2023-07-13T04:24:03;69393.00;;;-145.32;100.00
14041;BME280;7095;51.388;6.196;2023-07-13T04:26:32;70190.06;;;-145.32;100.00
14041;BME280;7095;51.388;6.196;2023-07-13T04:29:03;70255.97;;;-145.32;100.00
14041;BME280;7095;51.388;6.196;2023-07-13T04:31:32;71187.13;;;-145.32;100.00
14041;BME280;7095;51.388;6.196;2023-07-13T04:34:01;69277.16;;;-145.32;100.00
14041;BME280;7095;51.388;6.196;2023-07-13T04:36:30;69127.38;;;-145.32;100.00
14041;BME280;7095;51.388;6.196;2023-07-13T04:39:00;70094.16;;;-145.32;100.00
14041;BME280;7095;51.388;6.196;2023-07-13T04:41:29;69902.38;;;-145.32;100.00
14041;BME280;7095;51.388;6.196;2023-07-13T04:43:57;69534.81;;;-145.32;100.00
14041;BME280;7095;51.388;6.196;2023-07-13T04:46:26;69474.91;;;-145.32;100.00
14041;BME280;7095;51.388;6.196;2023-07-13T04:48:54;70102.16;;;-145.32;100.00
14041;BME280;7095;51.388;6.196;2023-07-13T04:51:24;70112.13;;;-145.32;100.00
14041;BME280;7095;51.388;6.196;2023-07-13T04:53:53;69500.88;;;-145.32;100.00
14041;BME280;7095;51.388;6.196;2023-07-13T04:56:28;68945.63;;;-145.32;100.00
14041;BME280;7095;51.388;6.196;2023-07-13T04:58:57;69185.28;;;-145.32;100.00
14041;BME280;7095;51.388;6.196;2023-07-13T05:01:26;68923.66;;;-145.32;100.00
14041;BME280;7095;51.388;6.196;2023-07-13T05:03:57;69488.88;;;-145.32;100.00
14041;BME280;7095;51.388;6.196;2023-07-13T05:06:26;70048.22;;;-145.32;100.00
14041;BME280;7095;51.388;6.196;2023-07-13T05:08:55;70909.34;;;-145.32;100.00
14041;BME280;7095;51.388;6.196;2023-07-13T05:11:24;71153.16;;;-145.32;100.00
14041;BME280;7095;51.388;6.196;2023-07-13T05:13:54;71442.94;;;-145.32;100.00
14041;BME280;7095;51.388;6.196;2023-07-13T05:16:23;72210.47;;;-145.32;100.00
14041;BME280;7095;51.388;6.196;2023-07-13T05:18:51;71442.94;;;-145.32;100.00
14041;BME280;7095;51.388;6.196;2023-07-13T05:21:20;70555.69;;;-145.32;100.00
14041;BME280;7095;51.388;6.196;2023-07-13T05:23:49;71370.97;;;-145.32;100.00
14041;BME280;7095;51.388;6.196;2023-07-13T05:26:17;71954.59;;;-145.32;100.00
14041;BME280;7095;51.388;6.196;2023-07-13T05:28:47;69748.56;;;-145.32;100.00
14041;BME280;7095;51.388;6.196;2023-07-13T05:31:17;68879.72;;;-145.32;100.00
14041;BME280;7095;51.388;6.196;2023-07-13T05:33:46;69089.41;;;-145.32;100.00
14041;BME280;7095;51.388;6.196;2023-07-13T05:36:14;67184.63;;;-145.32;100.00
14041;BME280;7095;51.388;6.196;2023-07-13T05:38:43;67903.28;;;-145.32;100.00
14041;BME280;7095;51.388;6.196;2023-07-13T05:41:11;67737.59;;;-145.32;100.00
14041;BME280;7095;51.388;6.196;2023-07-13T05:43:40;68434.41;;;-145.32;100.00
14041;BME280;7095;51.388;6.196;2023-07-13T05:46:09;67915.28;;;-145.32;100.00
14041;BME280;7095;51.388;6.196;2023-07-13T05:48:38;67691.66;;;-145.32;100.00
14041;BME280;7095;51.388;6.196;2023-07-13T05:51:07;66889.22;;;-145.32;100.00
14041;BME280;7095;51.388;6.196;2023-07-13T05:53:36;64610.66;;;-145.32;100.00
14041;BME280;7095;51.388;6.196;2023-07-13T05:56:05;64167.88;;;-145.32;100.00
14041;BME280;7095;51.388;6.196;2023-07-13T05:58:34;63830.88;;;-145.32;100.00
14041;BME280;7095;51.388;6.196;2023-07-13T06:01:05;63298.47;;;-145.32;100.00
14041;BME280;7095;51.388;6.196;2023-07-13T06:03:35;62833.94;;;-145.32;100.00
14041;BME280;7095;51.388;6.196;2023-07-13T06:06:07;63824.88;;;-145.32;100.00
14041;BME280;7095;51.388;6.196;2023-07-13T06:08:36;63928.59;;;-145.32;100.00
14041;BME280;7095;51.388;6.196;2023-07-13T06:11:07;64094.09;;;-145.32;100.00
14041;BME280;7095;51.388;6.196;2023-07-13T06:13:36;64822.09;;;-145.32;100.00
14041;BME280;7095;51.388;6.196;2023-07-13T06:16:05;64686.44;;;-145.32;100.00
14041;BME280;7095;51.388;6.196;2023-07-13T06:18:34;65717.81;;;-145.32;100.00
14041;BME280;7095;51.388;6.196;2023-07-13T06:21:08;63298.47;;;-145.32;100.00
14041;BME280;7095;51.388;6.196;2023-07-13T06:23:38;63075.19;;;-145.32;100.00
14041;BME280;7095;51.388;6.196;2023-07-13T06:26:07;63005.41;;;-145.32;100.00
14041;BME280;7095;51.388;6.196;2023-07-13T06:28:36;62867.84;;;-145.32;100.00
14041;BME280;7095;51.388;6.196;2023-07-13T06:31:08;62534.94;;;-145.32;100.00
14041;BME280;7095;51.388;6.196;2023-07-13T06:33:37;62740.25;;;-145.32;100.00
14041;BME280;7095;51.388;6.196;2023-07-13T06:36:08;62694.41;;;-145.32;100.00
14041;BME280;7095;51.388;6.196;2023-07-13T06:38:37;61570.28;;;-145.32;100.00
14041;BME280;7095;51.388;6.196;2023-07-13T06:41:07;61528.44;;;-145.32;100.00
14041;BME280;7095;51.388;6.196;2023-07-13T06:43:36;61494.56;;;-145.32;100.00
14041;BME280;7095;51.388;6.196;2023-07-13T06:46:04;61624.09;;;-145.32;100.00
14041;BME280;7095;51.388;6.196;2023-07-13T06:48:33;62026.66;;;-145.32;100.00
14041;BME280;7095;51.388;6.196;2023-07-13T06:51:02;60693.56;;;-145.32;100.00
14041;BME280;7095;51.388;6.196;2023-07-13T06:53:32;59930.63;;;-145.32;100.00
14041;BME280;7095;51.388;6.196;2023-07-13T06:56:01;60087.97;;;-145.32;100.00
14041;BME280;7095;51.388;6.196;2023-07-13T06:58:29;59894.75;;;-145.32;100.00
14041;BME280;7095;51.388;6.196;2023-07-13T07:00:58;59263.41;;;-145.32;100.00
14041;BME280;7095;51.388;6.196;2023-07-13T07:03:27;59323.16;;;-145.32;100.00
14041;BME280;7095;51.388;6.196;2023-07-13T07:06:00;59014.50;;;-145.32;100.00
14041;BME280;7095;51.388;6.196;2023-07-13T07:08:29;59219.59;;;-145.32;100.00
14041;BME280;7095;51.388;6.196;2023-07-13T07:10:59;59329.13;;;-145.32;100.00
14041;BME280;7095;51.388;6.196;2023-07-13T07:13:28;59022.47;;;-145.32;100.00
14041;BME280;7095;51.388;6.196;2023-07-13T07:15:57;59078.22;;;-145.32;100.00
14041;BME280;7095;51.388;6.196;2023-07-13T07:18:27;59460.56;;;-145.32;100.00
14041;BME280;7095;51.388;6.196;2023-07-13T07:20:55;59709.53;;;-145.32;100.00
14041;BME280;7095;51.388;6.196;2023-07-13T07:23:24;59912.69;;;-145.32;100.00
14041;BME280;7095;51.388;6.196;2023-07-13T07:25:53;60010.28;;;-145.32;100.00
14041;BME280;7095;51.388;6.196;2023-07-13T07:28:23;59446.63;;;-145.32;100.00
14041;BME280;7095;51.388;6.196;2023-07-13T07:30:56;58839.25;;;-145.32;100.00
14041;BME280;7095;51.388;6.196;2023-07-13T07:33:28;58666.03;;;-145.32;100.00
14041;BME280;7095;51.388;6.196;2023-07-13T07:35:57;58787.50;;;-145.32;100.00
14041;BME280;7095;51.388;6.196;2023-07-13T07:38:28;58421.13;;;-145.32;100.00
14041;BME280;7095;51.388;6.196;2023-07-13T07:40:57;58154.38;;;-145.32;100.00
14041;BME280;7095;51.388;6.196;2023-07-13T07:43:30;57973.19;;;-145.32;100.00
14041;BME280;7095;51.388;6.196;2023-07-13T07:45:59;57823.91;;;-145.32;100.00
14041;BME280;7095;51.388;6.196;2023-07-13T07:48:29;57883.63;;;-145.32;100.00
14041;BME280;7095;51.388;6.196;2023-07-13T07:50:58;57841.81;;;-145.32;100.00
14041;BME280;7095;51.388;6.196;2023-07-13T07:53:27;57873.66;;;-145.32;100.00
14041;BME280;7095;51.388;6.196;2023-07-13T07:55:59;58100.63;;;-145.32;100.00
14041;BME280;7095;51.388;6.196;2023-07-13T07:58:49;58556.53;;;-145.32;100.00
14041;BME280;7095;51.388;6.196;2023-07-13T08:01:21;57835.84;;;-145.32;100.00
14041;BME280;7095;51.388;6.196;2023-07-13T08:03:52;57640.78;;;-145.32;100.00
14041;BME280;7095;51.388;6.196;2023-07-13T08:06:24;57491.50;;;-145.32;100.00
14041;BME280;7095;51.388;6.196;2023-07-13T08:08:55;57210.84;;;-145.32;100.00
14041;BME280;7095;51.388;6.196;2023-07-13T08:11:24;57445.72;;;-145.32;100.00
14041;BME280;7095;51.388;6.196;2023-07-13T08:13:57;57366.09;;;-145.32;100.00
14041;BME280;7095;51.388;6.196;2023-07-13T08:16:26;57397.94;;;-145.32;100.00
14041;BME280;7095;51.388;6.196;2023-07-13T08:18:54;57031.75;;;-145.32;100.00
14041;BME280;7095;51.388;6.196;2023-07-13T08:21:23;56944.19;;;-145.32;100.00
14041;BME280;7095;51.388;6.196;2023-07-13T08:23:52;56186.03;;;-145.32;100.00
14041;BME280;7095;51.388;6.196;2023-07-13T08:26:21;55871.69;;;-145.32;100.00
14041;BME280;7095;51.388;6.196;2023-07-13T08:28:50;55690.66;;;-145.32;100.00
14041;BME280;7095;51.388;6.196;2023-07-13T08:31:20;55656.84;;;-145.32;100.00
14041;BME280;7095;51.388;6.196;2023-07-13T08:33:49;55599.16;;;-145.32;100.00
14041;BME280;7095;51.388;6.196;2023-07-13T08:36:17;55424.09;;;-145.32;100.00
14041;BME280;7095;51.388;6.196;2023-07-13T08:38:46;55247.06;;;-145.32;100.00
14041;BME280;7095;51.388;6.196;2023-07-13T08:41:16;55093.91;;;-145.32;100.00
14041;BME280;7095;51.388;6.196;2023-07-13T08:43:48;54936.78;;;-145.32;100.00
14041;BME280;7095;51.388;6.196;2023-07-13T08:46:21;54948.72;;;-145.32;100.00
14041;BME280;7095;51.388;6.196;2023-07-13T08:48:57;55032.25;;;-145.32;100.00
14041;BME280;7095;51.388;6.196;2023-07-13T08:51:35;54994.47;;;-145.32;100.00
14041;BME280;7095;51.388;6.196;2023-07-13T08:54:16;54875.13;;;-145.32;100.00
14041;BME280;7095;51.388;6.196;2023-07-13T08:56:46;55058.09;;;-145.32;100.00
14041;BME280;7095;51.388;6.196;2023-07-13T08:59:19;55127.72;;;-145.32;100.00
14041;BME280;7095;51.388;6.196;2023-07-13T09:02:17;54897.00;;;-145.32;100.00
14041;BME280;7095;51.388;6.196;2023-07-13T09:04:50;54642.44;;;-145.32;100.00
14041;BME280;7095;51.388;6.196;2023-07-13T09:07:29;54616.56;;;-145.32;100.00
14041;BME280;7095;51.388;6.196;2023-07-13T09:10:11;54676.25;;;-145.32;100.00
14041;BME280;7095;51.388;6.196;2023-07-13T09:12:53;54584.75;;;-145.32;100.00
14041;BME280;7095;51.388;6.196;2023-07-13T09:15:29;54584.75;;;-145.32;100.00
14041;BME280;7095;51.388;6.196;2023-07-13T09:18:03;54465.44;;;-145.32;100.00
14041;BME280;7095;51.388;6.196;2023-07-13T09:20:34;54360.03;;;-145.32;100.00
14041;BME280;7095;51.388;6.196;2023-07-13T09:23:09;54234.75;;;-145.32;100.00
14041;BME280;7095;51.388;6.196;2023-07-13T09:25:40;54246.69;;;-145.32;100.00
14041;BME280;7095;51.388;6.196;2023-07-13T09:28:17;54093.59;;;-145.32;100.00
14041;BME280;7095;51.388;6.196;2023-07-13T09:30:52;54063.75;;;-145.32;100.00
14041;BME280;7095;51.388;6.196;2023-07-13T09:33:24;54079.66;;;-145.32;100.00
14041;BME280;7095;51.388;6.196;2023-07-13T09:35:56;54057.78;;;-145.32;100.00
14041;BME280;7095;51.388;6.196;2023-07-13T09:38:27;54037.91;;;-145.32;100.00
14041;BME280;7095;51.388;6.196;2023-07-13T09:41:02;53952.41;;;-145.32;100.00
14041;BME280;7095;51.388;6.196;2023-07-13T09:43:37;53910.66;;;-145.32;100.00
14041;BME280;7095;51.388;6.196;2023-07-13T09:46:20;53916.63;;;-145.32;100.00
14041;BME280;7095;51.388;6.196;2023-07-13T09:48:51;53920.59;;;-145.32;100.00
14041;BME280;7095;51.388;6.196;2023-07-13T09:51:20;53886.78;;;-145.32;100.00
14041;BME280;7095;51.388;6.196;2023-07-13T09:53:49;53876.84;;;-145.32;100.00
14041;BME280;7095;51.388;6.196;2023-07-13T09:56:22;53761.53;;;-145.32;100.00
14041;BME280;7095;51.388;6.196;2023-07-13T09:58:51;53775.47;;;-145.32;100.00
14041;BME280;7095;51.388;6.196;2023-07-13T10:01:32;53731.72;;;-145.32;99.03
14041;BME280;7095;51.388;6.196;2023-07-13T10:04:10;53682.00;;;-145.32;100.00
14041;BME280;7095;51.388;6.196;2023-07-13T10:06:40;53735.69;;;-145.32;100.00
14041;BME280;7095;51.388;6.196;2023-07-13T10:09:13;53709.84;;;-145.32;100.00
14041;BME280;7095;51.388;6.196;2023-07-13T10:11:43;53719.78;;;-145.32;100.00
14041;BME280;7095;51.388;6.196;2023-07-13T10:14:15;53678.03;;;-145.32;98.26
14041;BME280;7095;51.388;6.196;2023-07-13T10:16:46;53658.16;;;-145.32;95.24
14041;BME280;7095;51.388;6.196;2023-07-13T10:19:21;53646.22;;;-145.32;93.55
14041;BME280;7095;51.388;6.196;2023-07-13T10:21:54;53604.47;;;-145.32;88.94
14041;BME280;7095;51.388;6.196;2023-07-13T10:24:25;53606.47;;;-145.32;88.86
14041;BME280;7095;51.388;6.196;2023-07-13T10:27:01;53542.84;;;-145.32;82.76
14041;BME280;7095;51.388;6.196;2023-07-13T10:29:36;53548.81;;;-145.32;85.95
14041;BME280;7095;51.388;6.196;2023-07-13T10:32:09;53594.53;;;-145.32;88.20
14041;BME280;7095;51.388;6.196;2023-07-13T10:34:40;53546.81;;;-145.32;82.81
14041;BME280;7095;51.388;6.196;2023-07-13T10:37:16;53511.03;;;-145.32;79.36
14041;BME280;7095;51.388;6.196;2023-07-13T10:39:48;53507.06;;;-145.32;78.94
14041;BME280;7095;51.388;6.196;2023-07-13T10:42:25;53477.22;;;-145.32;78.18
14041;BME280;7095;51.388;6.196;2023-07-13T10:44:55;53505.06;;;-145.32;75.84
14041;BME280;7095;51.388;6.196;2023-07-13T10:47:24;53419.59;;;-145.32;73.31
14041;BME280;7095;51.388;6.196;2023-07-13T10:49:58;53429.53;;;-145.32;74.06
14041;BME280;7095;51.388;6.196;2023-07-13T10:52:45;53451.38;;;-145.32;78.75
14041;BME280;7095;51.388;6.196;2023-07-13T10:55:34;53449.41;;;-145.32;73.23
14041;BME280;7095;51.388;6.196;2023-07-13T10:58:18;53401.69;;;-145.32;70.36
14041;BME280;7095;51.388;6.196;2023-07-13T11:00:51;53431.50;;;-145.32;68.72
14041;BME280;7095;51.388;6.196;2023-07-13T11:03:22;53427.53;;;-145.32;73.65
14041;BME280;7095;51.388;6.196;2023-07-13T11:06:08;53479.22;;;-145.32;72.99
14041;BME280;7095;51.388;6.196;2023-07-13T11:08:51;53403.69;;;-145.32;74.58
14041;BME280;7095;51.388;6.196;2023-07-13T11:11:36;53415.59;;;-145.32;71.80
14041;BME280;7095;51.388;6.196;2023-07-13T11:14:26;53363.91;;;-145.32;65.30
14041;BME280;7095;51.388;6.196;2023-07-13T11:16:55;53367.91;;;-145.32;67.72
14041;BME280;7095;51.388;6.196;2023-07-13T11:19:39;53355.97;;;-145.32;66.90
14041;BME280;7095;51.388;6.196;2023-07-13T11:22:22;53367.91;;;-145.32;65.01
14041;BME280;7095;51.388;6.196;2023-07-13T11:24:57;53383.78;;;-145.32;65.65
14041;BME280;7095;51.388;6.196;2023-07-13T11:27:40;53359.94;;;-145.32;69.39
14041;BME280;7095;51.388;6.196;2023-07-13T11:30:21;53336.09;;;-145.32;62.65
14041;BME280;7095;51.388;6.196;2023-07-13T11:32:51;53352.00;;;-145.32;61.94
14041;BME280;7095;51.388;6.196;2023-07-13T11:35:35;53359.94;;;-145.32;63.25
14041;BME280;7095;51.388;6.196;2023-07-13T11:38:14;53306.28;;;-145.32;65.97
14041;BME280;7095;51.388;6.196;2023-07-13T11:40:46;53344.03;;;-145.32;63.96
14041;BME280;7095;51.388;6.196;2023-07-13T11:43:23;53324.16;;;-145.32;58.72
14041;BME280;7095;51.388;6.196;2023-07-13T11:45:52;53328.13;;;-145.32;58.06
14041;BME280;7095;51.388;6.196;2023-07-13T11:48:23;53272.47;;;-145.32;56.90
14041;BME280;7095;51.388;6.196;2023-07-13T11:50:58;53310.25;;;-145.32;56.34
14041;BME280;7095;51.388;6.196;2023-07-13T11:53:32;53318.19;;;-145.32;57.50
14041;BME280;7095;51.388;6.196;2023-07-13T11:56:05;53302.28;;;-145.32;59.38
14041;BME280;7095;51.388;6.196;2023-07-13T11:58:35;53328.13;;;-145.32;63.46
14041;BME280;7095;51.388;6.196;2023-07-13T12:01:03;53344.03;;;-145.32;72.33
14041;BME280;7095;51.388;6.196;2023-07-13T12:03:33;53441.44;;;-145.32;86.84
14041;BME280;7095;51.388;6.196;2023-07-13T12:06:04;53483.19;;;-145.32;99.92
14041;BME280;7095;51.388;6.196;2023-07-13T12:08:39;53596.53;;;-145.32;100.00
14041;BME280;7095;51.388;6.196;2023-07-13T12:11:16;53552.78;;;-145.32;98.14
14041;BME280;7095;51.388;6.196;2023-07-13T12:13:46;53562.72;;;-145.32;98.13
14041;BME280;7095;51.388;6.196;2023-07-13T12:16:20;53520.97;;;-145.32;95.69
14041;BME280;7095;51.388;6.196;2023-07-13T12:18:52;53471.28;;;-145.32;90.06
14041;BME280;7095;51.388;6.196;2023-07-13T12:21:30;53359.94;;;-145.32;72.19
14041;BME280;7095;51.388;6.196;2023-07-13T12:24:01;53353.97;;;-145.32;67.93
14041;BME280;7095;51.388;6.196;2023-07-13T12:26:31;53270.47;;;-145.32;61.04
14041;BME280;7095;51.388;6.196;2023-07-13T12:29:01;53236.69;;;-145.32;56.57
14041;BME280;7095;51.388;6.196;2023-07-13T12:31:36;53220.78;;;-145.32;53.86
14041;BME280;7095;51.388;6.196;2023-07-13T12:34:08;53272.47;;;-145.32;55.20
14041;BME280;7095;51.388;6.196;2023-07-13T12:36:39;53202.91;;;-145.32;53.00
14041;BME280;7095;51.388;6.196;2023-07-13T12:39:16;53200.91;;;-145.32;53.04
14041;BME280;7095;51.388;6.196;2023-07-13T12:41:46;53264.53;;;-145.32;52.60
14041;BME280;7095;51.388;6.196;2023-07-13T12:44:18;53242.66;;;-145.32;51.46
14041;BME280;7095;51.388;6.196;2023-07-13T12:46:57;53204.88;;;-145.32;50.47
14041;BME280;7095;51.388;6.196;2023-07-13T12:49:29;53188.97;;;-145.32;51.14
14041;BME280;7095;51.388;6.196;2023-07-13T12:52:02;53232.72;;;-145.32;47.88
14041;BME280;7095;51.388;6.196;2023-07-13T12:54:33;53171.09;;;-145.32;46.61
14041;BME280;7095;51.388;6.196;2023-07-13T12:57:04;53163.13;;;-145.32;46.60
14041;BME280;7095;51.388;6.196;2023-07-13T12:59:36;53157.19;;;-145.32;46.78
14041;BME280;7095;51.388;6.196;2023-07-13T13:02:21;53169.09;;;-145.32;44.53
14041;BME280;7095;51.388;6.196;2023-07-13T13:04:51;53149.22;;;-145.32;46.17